• Join FlightAware (Why Join?)
  • Login
  • US Flag 
10:51AM EDT


 

Airport Tracker/Info


-or-


 

Live Flight TrackerFlight Track Log ✈ SWA920 ✈ 21-Apr-2013 ✈ KCHS - KBWI

Flight Track Log - Related Links

Times and Time Zones

All times are in EDT time to prevent confusion due to time zone crossing. See the SWA920 flight status page for this flight to view local times or setup timezone preferences in your user account.

Time Position Orientation Groundspeed Altitude Reporting Facility
EDT Latitude Longitude Course Direction KTS MPH feet Rate Location/Type
07:39PM 33.0433 -79.9933 15° North 264 304 7,700  Level Jacksonville Center
07:40PM 33.1197 -79.9461 27° Northeast 277 319 11,000 2,640 Climbing Jacksonville Center
07:41PM 33.2097 -79.8761 33° Northeast 338 389 13,000 2,400 Climbing Jacksonville Center
07:42PM 33.3061 -79.8008 33° Northeast 369 425 15,900 2,520 Climbing Jacksonville Center
07:43PM 33.4125 -79.7200 32° Northeast 418 481 18,100 2,340 Climbing Jacksonville Center
07:44PM 33.4634 -79.8628 13° North  Level FlightAware Approximate
07:44PM 33.5231 -79.6364 32° Northeast 449 517 20,600  Level Jacksonville Center
07:45PM 33.6397 -79.5447 33° Northeast 476 548 22,700 1,980 Climbing Jacksonville Center
07:46PM 33.7583 -79.4578 31° Northeast 495 570 24,600 1,800 Climbing Jacksonville Center
07:47PM 33.8756 -79.3931 25° Northeast 495 570 26,300 1,740 Climbing Jacksonville Center
07:48PM 34.0069 -79.3228 24° Northeast 506 582 28,100 1,740 Climbing Jacksonville Center
07:49PM 34.1469 -79.2494 23° Northeast 520 598 29,800 1,980 Climbing Jacksonville Center
07:52PM 34.4781 -79.0661 25° Northeast 540 621 34,700 1,980 Climbing Washington Center
07:53PM 34.6075 -78.9908 26° Northeast 527 606 36,500 1,560 Climbing Washington Center
07:54PM 34.7389 -78.9181 24° Northeast 517 595 37,900 1,200 Climbing Washington Center
07:55PM 34.8703 -78.8450 25° Northeast 511 588 39,000 540 Climbing Washington Center
07:56PM 34.9997 -78.7717 25° Northeast 511 588 39,000  Level Washington Center
07:57PM 35.1331 -78.6981 24° Northeast 511 588 39,000  Level Washington Center
07:58PM 35.2642 -78.6242 25° Northeast 511 588 39,000  Level Washington Center
07:59PM 35.3956 -78.5503 25° Northeast 523 602 39,000  Level Washington Center
08:00PM 35.5142 -78.4806 26° Northeast 523 602 39,000  Level Washington Center
08:01PM 35.6494 -78.4064 24° Northeast 517 595 39,000  Level Washington Center
08:02PM 35.7806 -78.3317 25° Northeast 517 595 39,000  Level Washington Center
08:03PM 35.9094 -78.2567 25° Northeast 512 589 39,000 -180 Level Washington Center
08:04PM 36.0383 -78.1839 25° Northeast 512 589 38,700 -1,500 Descending Washington Center
08:05PM 36.1672 -78.1083 25° Northeast 512 589 36,100 -3,000 Descending Washington Center
08:06PM 36.2981 -78.0350 24° Northeast 512 589 32,700 -3,360 Descending Washington Center
08:07PM 36.4289 -77.9567 26° Northeast 519 597 29,400 -1,860 Descending Washington Center
08:08PM 36.5597 -77.8806 25° Northeast 513 590 29,000 -420 Descending Washington Center
08:09PM 36.6886 -77.8039 25° Northeast 508 585 28,600 -960 Descending Washington Center
08:10PM 36.8150 -77.7297 25° Northeast 508 585 27,100 -2,220 Descending Washington Center
08:11PM 36.9394 -77.6578 25° Northeast 502 578 24,200 -2,100 Descending Washington Center
08:12PM 37.0656 -77.6064 18° North 483 556 23,000 -600 Descending Washington Center
08:13PM 37.1892 -77.5628 16° North 465 535 23,000  Level Washington Center
08:14PM 37.3108 -77.5217 15° North 459 528 23,000  Level Washington Center
08:15PM 37.4367 -77.4775 16° North 459 528 23,000  Level Washington Center
08:16PM 37.5625 -77.4336 15° North 459 528 23,000  Level Washington Center
08:17PM 37.6842 -77.3894 16° North 459 528 23,000  Level Washington Center
08:18PM 37.8100 -77.3450 16° North 459 528 23,000  Level Washington Center
08:19PM 37.9339 -77.2978 17° North 459 528 23,000 -900 Level Washington Center
08:20PM 38.0678 -77.2561 14° North 451 519 21,300 -1,920 Descending Washington Center
08:21PM 38.1747 -77.2161 16° North 446 513 19,200 -1,860 Descending Washington Center
08:22PM 38.2817 -77.1708 18° North 428 493 17,600 -2,100 Descending Washington Center
08:23PM 38.3886 -77.1281 17° North 412 474 15,000 -1,680 Descending Washington Center
08:24PM 38.4669 -77.0342 43° Northeast 386 444 14,300 -1,740 Descending Washington Center
08:25PM 38.5472 -76.9375 43° Northeast 386 444 11,600 -1,980 Descending Washington Center
08:26PM 38.6192 -76.8511 43° Northeast 367 422 10,400 -1,080 Descending Washington Center
08:27PM 38.6803 -76.7750 44° Northeast 337 388 9,500 -900 Descending Washington Center
08:28PM 38.7292 -76.6933 52° Northeast 304 350 8,600 -1,320 Descending Washington Center
08:29PM 38.7667 -76.6000 63° Northeast 275 316 7,000 -1,440 Descending Potomac TRACON
08:30PM 38.8167 -76.5333 46° Northeast 268 308 5,900 -1,440 Descending Potomac TRACON
08:31PM 38.9000 -76.5500 351° North 273 314 4,100 -960 Descending Potomac TRACON
08:32PM 38.9667 -76.5833 339° North 261 300 4,000 -60 Descending Potomac TRACON
08:33PM 39.0000 -76.6667 297° West 267 307 4,000  Level Potomac TRACON
08:34PM 39.0333 -76.7500 297° West 269 310 4,000 -120 Level Potomac TRACON
08:35PM 39.0833 -76.8333 308° West 266 306 3,800 -840 Descending Potomac TRACON
08:36PM 39.1167 -76.9000 303° West 264 304 2,300 -900 Descending Potomac TRACON
08:37PM 39.1667 -76.8667 27° Northeast 200 230 2,000 -180 Descending Potomac TRACON
08:38PM 39.1833 -76.8167 67° East 160 184 2,000 -360 Level Potomac TRACON
08:39PM 39.1833 -76.7667 90° East 161 185 1,300 -720 Descending Potomac TRACON
08:40PM 39.1833 -76.7167 90° East 128 147 600 -660 Descending Potomac TRACON
08:42PM 39.1754 -76.6683 North  Level Estimated
08:49PM 39.1754 -76.6683 North  Level Estimated